»·PEaware :: N40042 L88-KSBP

N40042 :: L88-KSBP

FLIGHT INFORMATION

Flight Status: Arrived
Operator: Privately registered:
United States
More flights under this callsign
Pilot: Reese N. (22941)
Aircraft: PIPER PA-28 CHEROKEE ARCHER
(P28A)
More flights by this aircraft type
Origin: L88 New Cuyama
United States
Destination: KSBP San Luis Co Regl
United States
More flights between these airports :: More routes between these airports
Route: FLW
File this flight plan on PilotEdge
Remarks:
Altitude:
(Current/Filed)
6,500ft
Speed:
(Current/Filed)
120kts
Departed: 08-Jan-19 04:43 PM
Arrived: 08-Jan-19 05:12 PM
Distance/Time
Traveled:
50nm/0:29
Distance/Time
To Go:
Arrived

Flight Plot

Page will automatically refresh every two minutes.


Map Options




Map Legend


Flown Route
Filed Route
Departure Airport
Arrival Airport
Navaid (VOR, NDB)
Fix

Horizontal Profiles

Position Reports

Time Latitude Longitude Heading Altitude Ground
Speed
08-Jan-19 16:31 34.942648 -119.690544 91 2162ft 0kts
08-Jan-19 16:32 34.942648 -119.690544 91 2162ft 0kts
08-Jan-19 16:33 34.942648 -119.690544 91 2162ft 0kts
08-Jan-19 16:34 34.942648 -119.690544 91 2162ft 0kts
08-Jan-19 16:35 34.942648 -119.690544 91 2162ft 0kts
08-Jan-19 16:36 34.942648 -119.690544 91 2162ft 0kts
08-Jan-19 16:37 34.942648 -119.690544 91 2162ft 0kts
08-Jan-19 16:38 34.942648 -119.690544 91 2162ft 0kts
08-Jan-19 16:39 34.942652 -119.690524 70 2162ft 1kts
08-Jan-19 16:40 34.942740 -119.691121 201 2159ft 0kts
08-Jan-19 16:41 34.942042 -119.690699 119 2165ft 28kts
08-Jan-19 16:42 34.945552 -119.672036 1 2708ft 100kts
08-Jan-19 16:43 34.962527 -119.696796 291 3445ft 101kts
08-Jan-19 16:44 34.979031 -119.725423 301 4200ft 111kts
08-Jan-19 16:45 34.999943 -119.752518 301 4928ft 113kts
08-Jan-19 16:46 35.021256 -119.779329 300 5657ft 109kts
08-Jan-19 16:47 35.042591 -119.805949 299 6323ft 110kts
08-Jan-19 16:48 35.063481 -119.832951 286 6933ft 106kts
08-Jan-19 16:49 35.081067 -119.869619 286 6491ft 139kts
08-Jan-19 16:50 35.099024 -119.908877 286 6480ft 127kts
08-Jan-19 16:51 35.107602 -119.947260 266 6481ft 116kts
08-Jan-19 16:52 35.113891 -119.986025 267 6482ft 116kts
08-Jan-19 16:53 35.119724 -120.020028 267 6499ft 116kts
08-Jan-19 16:54 35.126509 -120.058573 267 6499ft 116kts
08-Jan-19 16:55 35.133399 -120.097212 267 6499ft 116kts
08-Jan-19 16:56 35.140283 -120.135621 268 6499ft 116kts
08-Jan-19 16:57 35.147200 -120.174166 268 6499ft 116kts
08-Jan-19 16:58 35.154375 -120.213752 270 5574ft 117kts
08-Jan-19 16:59 35.161484 -120.252890 270 4603ft 120kts
08-Jan-19 17:00 35.168308 -120.292234 269 4407ft 116kts
08-Jan-19 17:01 35.174934 -120.328482 273 3816ft 126kts
08-Jan-19 17:02 35.181647 -120.363405 275 3274ft 125kts
08-Jan-19 17:03 35.189669 -120.403346 273 3050ft 115kts
08-Jan-19 17:04 35.197096 -120.441315 273 3050ft 114kts
08-Jan-19 17:05 35.196198 -120.479331 251 2820ft 118kts
08-Jan-19 17:06 35.192727 -120.521668 263 2173ft 122kts
08-Jan-19 17:07 35.196148 -120.559618 278 2028ft 112kts
08-Jan-19 17:08 35.209611 -120.590796 294 1630ft 93kts
08-Jan-19 17:09 35.223445 -120.616491 300 871ft 93kts
08-Jan-19 17:10 35.235273 -120.637400 303 186ft 41kts
08-Jan-19 17:12 35.237616 -120.639698 80 186ft 0kts
08-Jan-19 17:13 35.236115 -120.636958 124 186ft 11kts
08-Jan-19 17:14 35.236535 -120.636355 73 186ft 0kts
08-Jan-19 17:15 35.236535 -120.636355 73 186ft 0kts
08-Jan-19 17:16 35.236535 -120.636355 73 186ft 0kts
08-Jan-19 17:17 35.236535 -120.636355 73 186ft 0kts
08-Jan-19 17:18 35.236535 -120.636355 73 186ft 0kts
08-Jan-19 17:19 35.236535 -120.636355 73 186ft 0kts
08-Jan-19 17:20 35.236535 -120.636355 73 186ft 0kts
08-Jan-19 17:21 35.236535 -120.636355 73 186ft 0kts
08-Jan-19 17:22 35.236535 -120.636355 73 186ft 0kts
08-Jan-19 17:23 35.236535 -120.636355 73 186ft 0kts
08-Jan-19 17:24 35.236535 -120.636355 73 186ft 0kts
08-Jan-19 17:25 35.236535 -120.636355 73 186ft 0kts
08-Jan-19 17:26 35.236535 -120.636355 73 186ft 0kts

Navigation Log

Ident Type
Flight plan parsing failed, navigation log unavailable